Time;durP1;ratioP1;P1;durP2;ratioP2;P2;SDS_P1;SDS_P2;PMS_P1;PMS_P2;Temp;Humidity;BMP_temperature;BMP_pressure;BME280_temperature;BME280_humidity;BME280_pressure;Samples;Min_cycle;Max_cycle;Signal;HPM_P1;HPM_P2
2023/01/13 00:01:08;;;;;;;0.40;0.20;;;9.10;98.00;;;;;;5128291;27;20657;-70
2023/01/13 00:03:34;;;;;;;0.33;0.20;;;9.00;98.10;;;;;;5114990;27;20631;-69
2023/01/13 00:06:01;;;;;;;0.30;0.20;;;9.10;98.20;;;;;;5109815;27;20659;-69
2023/01/13 00:08:28;;;;;;;0.70;0.30;;;9.10;99.90;;;;;;5126606;27;20731;-69
2023/01/13 00:10:56;;;;;;;0.60;0.47;;;9.00;98.40;;;;;;5129777;27;20757;-69
2023/01/13 00:13:26;;;;;;;0.43;0.30;;;9.00;98.30;;;;;;5120066;27;20624;-69
2023/01/13 00:15:56;;;;;;;0.80;0.70;;;9.00;98.40;;;;;;5109195;27;20716;-69
2023/01/13 00:18:23;;;;;;;0.40;0.30;;;9.00;98.50;;;;;;5121856;27;20622;-69
2023/01/13 00:20:58;;;;;;;0.53;0.50;;;11.10;99.90;;;;;;5128879;27;20649;-69
2023/01/13 00:23:27;;;;;;;0.30;0.30;;;9.00;98.40;;;;;;5129561;27;20635;-69
2023/01/13 00:25:56;;;;;;;0.30;0.20;;;9.20;99.90;;;;;;5126931;27;20670;-69
2023/01/13 00:28:23;;;;;;;0.30;0.20;;;9.00;98.40;;;;;;5116915;27;21212;-69
2023/01/13 00:30:50;;;;;;;0.60;0.57;;;8.70;98.30;;;;;;5120471;27;20655;-69
2023/01/13 00:33:18;;;;;;;2.10;0.40;;;9.00;99.90;;;;;;5109131;28;20727;-71
2023/01/13 00:35:45;;;;;;;0.30;0.20;;;9.10;98.20;;;;;;5121225;27;20781;-69
2023/01/13 00:38:12;;;;;;;0.47;0.30;;;9.00;98.40;;;;;;5112371;27;20635;-70
2023/01/13 00:40:38;;;;;;;0.60;0.20;;;10.00;99.90;;;;;;5128810;27;20645;-70
2023/01/13 00:43:22;;;;;;;0.87;0.87;;;9.10;98.30;;;;;;5129403;27;20625;-70
2023/01/13 00:45:50;;;;;;;1.70;0.47;;;9.10;98.30;;;;;;5129517;27;20638;-70
2023/01/13 00:48:17;;;;;;;0.40;0.30;;;9.10;98.30;;;;;;5113493;27;20619;-71
2023/01/13 00:50:44;;;;;;;1.17;0.30;;;9.00;98.50;;;;;;5108612;28;20681;-69
2023/01/13 00:53:11;;;;;;;0.90;0.57;;;9.10;98.50;;;;;;5108368;28;20628;-69
2023/01/13 00:55:38;;;;;;;0.40;0.30;;;9.10;98.50;;;;;;5108686;28;21263;-70
2023/01/13 00:58:06;;;;;;;0.40;0.40;;;9.10;98.30;;;;;;5108356;28;21176;-69
2023/01/13 01:00:33;;;;;;;0.57;0.40;;;9.10;98.10;;;;;;5108458;28;20654;-69
2023/01/13 01:03:00;;;;;;;0.50;0.50;;;9.20;98.30;;;;;;5117017;27;20633;-69
2023/01/13 01:05:27;;;;;;;0.50;0.50;;;9.20;98.30;;;;;;5127478;27;20707;-70
2023/01/13 01:07:53;;;;;;;0.40;0.30;;;9.20;98.20;;;;;;5116804;27;20990;-69
2023/01/13 01:10:20;;;;;;;0.70;0.30;;;9.20;98.20;;;;;;5128250;27;21126;-69
2023/01/13 01:12:47;;;;;;;0.30;0.20;;;9.20;98.10;;;;;;5128572;27;20634;-70
2023/01/13 01:15:15;;;;;;;0.40;0.40;;;9.30;98.00;;;;;;5125509;27;20712;-69
2023/01/13 01:17:42;;;;;;;0.30;0.20;;;9.30;98.10;;;;;;5122035;27;20995;-69
2023/01/13 01:20:10;;;;;;;0.40;0.40;;;9.20;99.90;;;;;;5126016;27;20627;-69
2023/01/13 01:22:37;;;;;;;1.13;0.97;;;9.30;97.80;;;;;;5113158;27;20639;-69
2023/01/13 01:25:04;;;;;;;0.47;0.40;;;9.30;97.80;;;;;;5108407;28;20621;-70
2023/01/13 01:27:31;;;;;;;0.30;0.30;;;9.30;98.00;;;;;;5122714;27;20647;-69
2023/01/13 01:29:58;;;;;;;0.30;0.30;;;9.30;97.80;;;;;;5107695;28;20628;-69
2023/01/13 01:32:26;;;;;;;0.47;0.30;;;9.30;98.00;;;;;;5110013;27;20651;-70
2023/01/13 01:34:52;;;;;;;1.10;0.40;;;9.30;98.10;;;;;;5127527;27;20667;-69
2023/01/13 01:37:19;;;;;;;0.30;0.20;;;9.30;98.00;;;;;;5126683;27;20659;-69
2023/01/13 01:39:46;;;;;;;0.60;0.30;;;9.40;98.10;;;;;;5114772;27;20624;-69
2023/01/13 01:45:02;;;;;;;0.50;0.37;;;9.30;98.20;;;;;;5128180;27;20611;-70
2023/01/13 01:47:32;;;;;;;0.37;0.27;;;9.40;98.20;;;;;;5128090;27;21021;-69
2023/01/13 01:50:01;;;;;;;0.37;0.37;;;9.30;98.20;;;;;;5128289;28;20627;-70
2023/01/13 01:52:31;;;;;;;0.30;0.20;;;9.30;98.60;;;;;;5128715;28;20746;-69
2023/01/13 01:55:02;;;;;;;0.30;0.20;;;9.30;98.70;;;;;;5128113;28;20665;-69
2023/01/13 01:57:42;;;;;;;0.50;0.20;;;9.30;98.80;;;;;;5127170;28;20662;-69
2023/01/13 02:00:10;;;;;;;0.50;0.50;;;9.30;98.80;;;;;;5127984;28;20623;-69
2023/01/13 02:02:38;;;;;;;0.30;0.20;;;9.30;98.50;;;;;;5127489;28;20629;-69
2023/01/13 02:05:06;;;;;;;0.40;0.30;;;9.30;98.60;;;;;;5127771;28;20627;-69
2023/01/13 02:07:36;;;;;;;0.30;0.20;;;9.30;98.70;;;;;;5128105;28;20719;-69
2023/01/13 02:10:06;;;;;;;1.07;0.43;;;9.30;98.80;;;;;;5127337;28;21243;-69
2023/01/13 02:12:33;;;;;;;1.73;0.40;;;9.30;98.70;;;;;;5127975;28;20615;-69
2023/01/13 02:15:03;;;;;;;1.53;0.63;;;9.40;98.80;;;;;;5128037;28;20692;-69
2023/01/13 02:18:05;;;;;;;0.60;0.50;;;9.30;98.40;;;;;;5127644;28;20687;-69
2023/01/13 02:21:06;;;;;;;0.50;0.30;;;9.30;98.60;;;;;;5127298;28;20734;-69
2023/01/13 02:27:27;;;;;;;0.30;0.20;;;9.20;99.90;;;;;;5127322;28;21100;-70
2023/01/13 02:33:03;;;;;;;0.40;0.30;;;9.20;99.90;;;;;;5127884;28;20975;-69
2023/01/13 02:35:39;;;;;;;0.30;0.20;;;9.20;99.90;;;;;;5127670;28;20764;-69
2023/01/13 02:38:11;;;;;;;0.40;0.40;;;9.20;98.50;;;;;;5111370;28;20635;-69
2023/01/13 02:40:47;;;;;;;0.57;0.40;;;9.20;98.60;;;;;;5123588;28;21046;-69
2023/01/13 02:46:13;;;;;;;0.30;0.20;;;9.20;98.70;;;;;;5131845;27;20654;-69
2023/01/13 02:48:43;;;;;;;0.50;0.40;;;9.20;99.90;;;;;;5130305;27;21014;-69
2023/01/13 02:51:15;;;;;;;0.40;0.30;;;9.30;98.30;;;;;;5131337;27;21324;-69
2023/01/13 02:53:47;;;;;;;0.70;0.40;;;9.30;98.60;;;;;;5131124;27;20729;-69
2023/01/13 02:56:17;;;;;;;0.83;0.30;;;9.30;98.60;;;;;;5131874;27;21227;-68
2023/01/13 02:58:46;;;;;;;0.60;0.60;;;9.30;98.60;;;;;;5130753;27;21215;-69
2023/01/13 03:01:15;;;;;;;0.30;0.20;;;9.30;98.90;;;;;;5131351;27;20699;-70
2023/01/13 03:03:42;;;;;;;0.30;0.20;;;9.30;99.00;;;;;;5130979;27;20695;-69
2023/01/13 03:06:28;;;;;;;0.30;0.20;;;9.30;98.90;;;;;;5131567;27;20647;-70
2023/01/13 03:09:03;;;;;;;0.40;0.30;;;9.20;98.90;;;;;;5131065;27;20729;-69
2023/01/13 03:11:34;;;;;;;1.13;0.30;;;9.20;99.10;;;;;;5131166;27;20646;-69
2023/01/13 03:14:12;;;;;;;0.40;0.30;;;9.10;98.80;;;;;;5131218;27;20618;-69
2023/01/13 03:16:58;;;;;;;0.30;0.20;;;9.10;99.00;;;;;;5130156;27;20654;-70
2023/01/13 03:19:37;;;;;;;0.50;0.37;;;9.10;99.10;;;;;;5130164;27;21243;-68
2023/01/13 03:22:14;;;;;;;0.40;0.37;;;9.20;99.90;;;;;;5116941;27;21137;-69
2023/01/13 03:24:47;;;;;;;0.30;0.30;;;9.20;98.90;;;;;;5131284;27;20622;-69
2023/01/13 03:27:20;;;;;;;0.40;0.30;;;9.20;99.90;;;;;;5121342;27;20663;-69
2023/01/13 03:29:53;;;;;;;0.57;0.40;;;9.10;99.90;;;;;;5111611;27;21127;-69
2023/01/13 03:32:26;;;;;;;0.30;0.20;;;9.20;99.10;;;;;;5113092;27;20692;-69
2023/01/13 03:34:56;;;;;;;0.30;0.20;;;9.20;98.90;;;;;;5130554;27;20746;-69
2023/01/13 03:37:29;;;;;;;0.43;0.40;;;9.20;98.80;;;;;;5129920;27;20677;-70
2023/01/13 03:40:00;;;;;;;0.30;0.20;;;9.30;99.00;;;;;;5115113;27;20627;-69
2023/01/13 03:42:32;;;;;;;0.30;0.20;;;9.20;98.80;;;;;;5109793;28;20690;-69
2023/01/13 03:45:05;;;;;;;2.37;0.73;;;9.30;99.10;;;;;;5119095;27;20618;-70
2023/01/13 03:47:41;;;;;;;0.30;0.20;;;9.30;99.90;;;;;;5126791;27;20629;-70
2023/01/13 03:50:13;;;;;;;0.40;0.40;;;9.30;98.90;;;;;;5109573;27;20616;-69
2023/01/13 03:52:45;;;;;;;0.50;0.30;;;9.30;99.10;;;;;;5114902;27;20646;-69
2023/01/13 03:55:17;;;;;;;0.40;0.30;;;9.30;99.00;;;;;;5109374;28;20758;-69
2023/01/13 03:57:52;;;;;;;0.40;0.20;;;9.20;99.00;;;;;;5118578;27;20627;-69
2023/01/13 04:00:24;;;;;;;0.50;0.23;;;9.20;99.90;;;;;;5129810;27;21244;-68
2023/01/13 04:02:56;;;;;;;1.77;1.10;;;9.10;99.50;;;;;;5120266;27;20619;-69
2023/01/13 04:05:24;;;;;;;0.30;0.20;;;9.30;99.90;;;;;;5109505;27;21057;-69
2023/01/13 04:07:58;;;;;;;0.67;0.30;;;9.10;99.50;;;;;;5122281;27;20651;-70
2023/01/13 04:10:29;;;;;;;0.57;0.57;;;9.10;99.60;;;;;;5129670;27;20725;-69
2023/01/13 04:13:01;;;;;;;0.60;0.30;;;8.90;99.90;;;;;;5130218;27;20656;-69
2023/01/13 04:15:30;;;;;;;1.53;0.63;;;9.00;99.60;;;;;;5127600;27;20685;-69
2023/01/13 04:18:21;;;;;;;0.30;0.20;;;9.00;99.70;;;;;;5112886;27;20615;-69
2023/01/13 04:20:50;;;;;;;0.30;0.20;;;9.10;99.60;;;;;;5103934;28;21326;-69
2023/01/13 04:23:18;;;;;;;0.30;0.20;;;9.10;99.40;;;;;;5110565;27;20730;-69
2023/01/13 04:25:46;;;;;;;0.73;0.43;;;9.00;99.90;;;;;;5109428;27;20668;-69
2023/01/13 04:28:13;;;;;;;1.80;0.40;;;9.10;99.50;;;;;;5110518;27;20708;-69
2023/01/13 04:30:40;;;;;;;0.30;0.30;;;9.00;99.60;;;;;;5110099;27;20747;-69
2023/01/13 04:33:08;;;;;;;0.30;0.30;;;9.00;99.60;;;;;;5119533;27;20684;-70
2023/01/13 04:35:37;;;;;;;0.30;0.20;;;9.00;99.90;;;;;;5112265;27;20671;-69
2023/01/13 04:38:05;;;;;;;0.50;0.33;;;9.10;99.60;;;;;;5113084;27;20638;-70
2023/01/13 04:40:32;;;;;;;0.30;0.20;;;9.20;99.40;;;;;;5127678;27;20647;-70
2023/01/13 04:42:59;;;;;;;0.40;0.40;;;9.20;99.30;;;;;;5128556;27;21270;-69
2023/01/13 04:45:25;;;;;;;0.40;0.20;;;9.20;99.40;;;;;;5128693;27;20642;-69
2023/01/13 04:47:52;;;;;;;20.57;0.87;;;9.20;99.40;;;;;;5128094;27;20662;-69
2023/01/13 04:50:21;;;;;;;6.03;1.40;;;9.20;99.40;;;;;;5128045;27;20710;-69
2023/01/13 04:52:50;;;;;;;1.17;0.37;;;9.10;99.40;;;;;;5128139;27;20945;-69
2023/01/13 04:55:18;;;;;;;0.30;0.10;;;9.20;99.20;;;;;;5127995;27;20677;-70
2023/01/13 04:57:45;;;;;;;0.40;0.20;;;9.20;99.30;;;;;;5128344;27;20634;-70
2023/01/13 05:00:14;;;;;;;0.70;0.30;;;9.20;99.30;;;;;;5128270;27;21338;-70
2023/01/13 05:02:41;;;;;;;0.67;0.67;;;9.20;99.50;;;;;;5127899;27;21191;-69
2023/01/13 05:05:08;;;;;;;0.67;0.43;;;9.20;99.20;;;;;;5127633;27;20622;-69
2023/01/13 05:07:36;;;;;;;0.83;0.30;;;9.30;99.30;;;;;;5126757;27;21002;-70
2023/01/13 05:10:04;;;;;;;0.30;0.20;;;9.20;99.00;;;;;;5128009;27;20625;-70
2023/01/13 05:18:01;;;;;;;0.40;0.30;;;9.20;99.20;;;;;;5128258;27;20650;-69
2023/01/13 05:20:28;;;;;;;1.03;0.50;;;9.30;99.20;;;;;;5127036;27;20646;-68
2023/01/13 05:25:42;;;;;;;0.30;0.20;;;9.10;99.20;;;;;;5127108;27;20643;-70
2023/01/13 05:28:10;;;;;;;0.80;0.80;;;9.10;99.20;;;;;;5127720;27;21534;-69
2023/01/13 05:30:42;;;;;;;1.10;0.47;;;9.10;99.20;;;;;;5127588;27;20653;-69
2023/01/13 05:33:09;;;;;;;0.67;0.37;;;9.10;99.40;;;;;;5127855;27;21186;-69
2023/01/13 05:35:38;;;;;;;0.30;0.20;;;9.00;99.50;;;;;;5127535;27;20674;-69
2023/01/13 05:38:05;;;;;;;0.37;0.30;;;9.10;99.40;;;;;;5125560;27;20649;-70
2023/01/13 05:43:23;;;;;;;0.30;0.20;;;9.00;99.40;;;;;;5128129;27;20705;-69
2023/01/13 05:45:53;;;;;;;0.40;0.30;;;9.00;99.50;;;;;;5127595;27;21051;-69
2023/01/13 05:48:23;;;;;;;0.40;0.40;;;9.00;99.50;;;;;;5127163;28;21305;-69
2023/01/13 05:50:52;;;;;;;0.30;0.30;;;9.00;99.60;;;;;;5126697;28;20631;-69
2023/01/13 05:53:19;;;;;;;0.30;0.20;;;9.00;99.50;;;;;;5127496;28;21401;-69
2023/01/13 05:55:46;;;;;;;0.40;0.30;;;9.10;99.50;;;;;;5127410;28;20671;-69
2023/01/13 05:58:15;;;;;;;2.33;1.20;;;9.00;99.40;;;;;;5127091;28;20615;-69
2023/01/13 06:00:43;;;;;;;0.53;0.53;;;9.00;99.50;;;;;;5122155;28;20753;-70
2023/01/13 06:03:10;;;;;;;0.30;0.20;;;9.00;99.40;;;;;;5126749;28;20837;-70
2023/01/13 06:05:38;;;;;;;0.30;0.20;;;9.00;99.50;;;;;;5116220;28;20822;-69
2023/01/13 06:08:06;;;;;;;0.40;0.30;;;9.00;99.40;;;;;;5107655;28;20623;-68
2023/01/13 06:10:33;;;;;;;0.30;0.20;;;9.00;99.60;;;;;;5107529;28;20651;-69
2023/01/13 06:13:00;;;;;;;0.60;0.33;;;9.00;99.50;;;;;;5107790;28;20642;-70
2023/01/13 06:15:27;;;;;;;0.30;0.20;;;9.00;99.50;;;;;;5107408;28;20655;-69
2023/01/13 06:17:56;;;;;;;0.40;0.20;;;9.00;99.60;;;;;;5126052;27;21007;-69
2023/01/13 06:20:23;;;;;;;0.30;0.20;;;9.20;99.90;;;;;;5129440;27;20619;-69
2023/01/13 06:22:53;;;;;;;0.30;0.17;;;9.00;99.90;;;;;;5130220;27;21123;-69
2023/01/13 06:25:26;;;;;;;0.30;0.20;;;9.00;99.70;;;;;;5131074;27;20629;-69
2023/01/13 06:27:54;;;;;;;0.40;0.30;;;9.70;99.90;;;;;;5130076;27;21356;-69
2023/01/13 06:30:21;;;;;;;0.30;0.20;;;;;;;;;;5129369;27;21136;-69
2023/01/13 06:32:52;;;;;;;0.30;0.20;;;9.90;99.90;;;;;;5117980;27;20660;-69
2023/01/13 06:35:24;;;;;;;0.30;0.20;;;9.10;99.70;;;;;;5122961;27;20846;-69
2023/01/13 06:37:53;;;;;;;0.30;0.20;;;9.60;99.90;;;;;;5123912;27;20645;-69
2023/01/13 06:40:20;;;;;;;0.30;0.20;;;9.00;99.70;;;;;;5122853;27;21008;-68
2023/01/13 06:45:50;;;;;;;0.30;0.20;;;9.10;99.90;;;;;;5060839;28;21015;-69
2023/01/13 06:48:18;;;;;;;0.80;0.60;;;9.10;99.80;;;;;;5047651;28;20636;-69
2023/01/13 06:50:47;;;;;;;0.30;0.20;;;9.00;99.90;;;;;;5082215;27;20707;-69
2023/01/13 06:53:14;;;;;;;0.60;0.43;;;8.90;99.90;;;;;;5129891;27;20618;-71
2023/01/13 06:55:40;;;;;;;0.30;0.20;;;9.00;99.80;;;;;;5129256;27;21587;-69
2023/01/13 06:58:07;;;;;;;0.40;0.30;;;9.10;99.90;;;;;;5129300;27;21192;-68
2023/01/13 07:00:35;;;;;;;0.30;0.23;;;9.00;99.90;;;;;;5129567;27;20750;-70
2023/01/13 07:03:10;;;;;;;0.30;0.20;;;9.00;99.90;;;;;;5116674;27;20628;-70
2023/01/13 07:05:37;;;;;;;0.30;0.20;;;9.00;99.90;;;;;;5117158;27;20741;-69
2023/01/13 07:08:06;;;;;;;0.40;0.33;;;9.00;99.90;;;;;;5123929;27;20626;-68
2023/01/13 07:10:33;;;;;;;0.30;0.20;;;9.00;99.90;;;;;;5109641;27;20644;-68
2023/01/13 07:15:57;;;;;;;0.33;0.23;;;9.00;99.90;;;;;;5125636;27;20654;-67
2023/01/13 07:18:26;;;;;;;0.30;0.30;;;8.80;99.90;;;;;;5126719;27;20741;-67
2023/01/13 07:20:54;;;;;;;0.50;0.50;;;8.90;99.90;;;;;;5108300;27;20659;-68
2023/01/13 07:23:23;;;;;;;0.30;0.20;;;8.90;99.90;;;;;;5107914;28;20631;-69
2023/01/13 07:25:50;;;;;;;0.40;0.30;;;9.00;99.90;;;;;;5127259;27;20766;-68
2023/01/13 07:28:17;;;;;;;0.33;0.33;;;9.00;99.90;;;;;;5128573;27;21255;-71
2023/01/13 07:30:44;;;;;;;0.30;0.20;;;9.00;99.90;;;;;;5114640;27;20737;-68
2023/01/13 07:33:11;;;;;;;0.30;0.20;;;8.90;99.90;;;;;;5118634;27;20634;-68
2023/01/13 07:35:37;;;;;;;0.40;0.20;;;8.60;99.90;;;;;;5125443;27;20645;-70
2023/01/13 07:38:04;;;;;;;2.07;0.40;;;8.90;99.90;;;;;;5129303;27;21284;-69
2023/01/13 07:40:32;;;;;;;0.57;0.57;;;9.00;99.90;;;;;;5109500;27;20712;-68
2023/01/13 07:45:43;;;;;;;0.30;0.20;;;9.10;99.90;;;;;;5129792;27;20658;-68
2023/01/13 07:48:10;;;;;;;0.30;0.20;;;9.20;99.90;;;;;;5129298;27;21184;-69
2023/01/13 07:50:37;;;;;;;0.30;0.27;;;9.00;99.90;;;;;;5115336;27;20660;-69
2023/01/13 07:53:04;;;;;;;0.30;0.20;;;9.00;99.90;;;;;;5121218;27;20950;-69
2023/01/13 07:55:32;;;;;;;0.30;0.20;;;9.10;99.90;;;;;;5127720;27;20655;-68
2023/01/13 07:57:59;;;;;;;0.30;0.20;;;9.10;99.90;;;;;;5116433;27;20758;-69
2023/01/13 08:00:26;;;;;;;0.43;0.30;;;9.20;99.90;;;;;;5113826;27;20747;-69
2023/01/13 08:02:53;;;;;;;0.37;0.20;;;9.10;99.90;;;;;;5129582;27;21191;-69
2023/01/13 08:05:20;;;;;;;0.30;0.20;;;9.20;99.90;;;;;;5128733;27;20657;-68
2023/01/13 08:07:46;;;;;;;0.40;0.20;;;9.30;99.90;;;;;;5128589;27;20638;-69
2023/01/13 08:10:13;;;;;;;0.30;0.20;;;9.30;99.80;;;;;;5127429;27;20639;-69
2023/01/13 08:15:26;;;;;;;0.30;0.20;;;9.30;99.90;;;;;;5129575;27;20854;-68
2023/01/13 08:17:52;;;;;;;0.30;0.20;;;9.40;99.90;;;;;;5128855;27;20671;-69
2023/01/13 08:20:19;;;;;;;0.30;0.20;;;9.70;99.90;;;;;;5128286;27;20648;-69
2023/01/13 08:22:46;;;;;;;0.30;0.20;;;9.50;99.90;;;;;;5128962;27;21000;-69
2023/01/13 08:25:13;;;;;;;0.30;0.20;;;9.60;99.90;;;;;;5128497;27;20629;-69
2023/01/13 08:27:41;;;;;;;0.50;0.30;;;9.50;99.90;;;;;;5129023;27;21192;-69
2023/01/13 08:30:10;;;;;;;0.30;0.20;;;9.40;99.90;;;;;;5128179;27;20773;-69
2023/01/13 08:32:37;;;;;;;0.30;0.23;;;9.50;99.90;;;;;;5128576;27;20662;-69
2023/01/13 08:35:04;;;;;;;0.30;0.20;;;9.50;99.90;;;;;;5126414;27;20645;-69
2023/01/13 08:37:30;;;;;;;0.40;0.40;;;9.20;99.90;;;;;;5122765;27;20670;-70
2023/01/13 08:39:57;;;;;;;0.30;0.20;;;9.30;99.90;;;;;;5128028;27;21510;-69
2023/01/13 08:42:25;;;;;;;0.30;0.20;;;9.20;99.90;;;;;;5118572;27;21239;-70
2023/01/13 08:44:54;;;;;;;0.47;0.20;;;9.00;99.90;;;;;;5108615;27;21235;-69
2023/01/13 08:47:21;;;;;;;0.90;0.30;;;9.00;99.90;;;;;;5108147;28;21213;-70
2023/01/13 08:49:48;;;;;;;0.40;0.30;;;8.80;99.90;;;;;;5109882;27;20722;-69
2023/01/13 08:52:15;;;;;;;0.30;0.20;;;8.80;99.90;;;;;;5125724;27;20647;-70
2023/01/13 08:54:42;;;;;;;0.30;0.17;;;8.80;99.90;;;;;;5128622;27;20615;-69
2023/01/13 08:57:09;;;;;;;0.30;0.20;;;8.80;99.90;;;;;;5127130;27;20676;-70
2023/01/13 08:59:35;;;;;;;0.40;0.20;;;8.80;99.90;;;;;;5125916;27;20633;-69
2023/01/13 09:02:04;;;;;;;0.30;0.23;;;8.80;99.90;;;;;;5127249;27;20659;-70
2023/01/13 09:04:31;;;;;;;0.30;0.20;;;8.80;99.90;;;;;;5107888;27;20620;-70
2023/01/13 09:06:57;;;;;;;0.30;0.20;;;8.80;99.90;;;;;;5123172;27;20653;-69
2023/01/13 09:09:26;;;;;;;0.30;0.20;;;8.70;99.90;;;;;;5127924;27;20979;-69
2023/01/13 09:14:38;;;;;;;0.57;0.27;;;8.70;99.90;;;;;;5108315;27;20612;-70
2023/01/13 09:17:08;;;;;;;1.67;0.30;;;8.70;99.90;;;;;;5108393;28;20792;-70
2023/01/13 09:19:35;;;;;;;0.30;0.30;;;8.60;99.90;;;;;;5107173;27;20656;-69
2023/01/13 09:22:02;;;;;;;0.30;0.20;;;8.60;99.90;;;;;;5110233;27;20727;-70
2023/01/13 09:24:29;;;;;;;0.53;0.53;;;8.50;99.90;;;;;;5117098;27;20965;-69
2023/01/13 09:26:56;;;;;;;0.30;0.20;;;8.50;99.90;;;;;;5115579;27;20649;-70
2023/01/13 09:29:23;;;;;;;1.00;0.93;;;8.40;99.90;;;;;;5109848;27;20734;-69
2023/01/13 09:31:50;;;;;;;0.30;0.20;;;8.40;99.90;;;;;;5114839;27;20639;-70
2023/01/13 09:37:06;;;;;;;0.40;0.30;;;8.10;99.90;;;;;;5109332;27;20655;-70
2023/01/13 09:39:34;;;;;;;0.70;0.70;;;8.10;99.90;;;;;;5125170;27;20638;-69
2023/01/13 09:44:57;;;;;;;0.30;0.23;;;8.10;99.90;;;;;;5107718;28;20620;-70
2023/01/13 09:47:29;;;;;;;0.30;0.10;;;8.10;99.90;;;;;;5107307;28;20658;-70
2023/01/13 09:50:03;;;;;;;0.30;0.20;;;8.20;99.90;;;;;;5108827;28;21185;-70
2023/01/13 09:52:30;;;;;;;0.30;0.20;;;8.00;99.90;;;;;;5113869;27;20618;-71
2023/01/13 09:55:03;;;;;;;0.30;0.20;;;8.20;99.90;;;;;;5111945;28;20767;-72
2023/01/13 09:57:36;;;;;;;0.30;0.20;;;8.20;99.90;;;;;;5115790;28;21307;-68
2023/01/13 10:00:09;;;;;;;0.30;0.20;;;8.10;99.90;;;;;;5120846;28;20737;-70
2023/01/13 10:02:46;;;;;;;0.30;0.20;;;8.00;99.90;;;;;;5122763;28;20722;-69
2023/01/13 10:05:22;;;;;;;0.30;0.10;;;8.60;99.90;;;;;;5112894;28;20626;-71
2023/01/13 10:07:52;;;;;;;0.30;0.20;;;7.90;99.90;;;;;;5108579;28;20218;-69
2023/01/13 10:10:29;;;;;;;1.63;0.33;;;7.90;99.90;;;;;;5123200;28;20314;-68
2023/01/13 10:13:13;;;;;;;0.40;0.30;;;7.90;99.90;;;;;;5125302;28;20619;-66
2023/01/13 10:15:46;;;;;;;0.30;0.20;;;7.60;99.90;;;;;;5123774;28;20582;-67
2023/01/13 10:18:18;;;;;;;0.30;0.20;;;7.80;99.90;;;;;;5124055;28;20659;-67
2023/01/13 10:20:56;;;;;;;0.40;0.30;;;7.80;99.90;;;;;;5116591;28;20222;-67
2023/01/13 10:23:52;;;;;;;0.30;0.20;;;7.80;99.90;;;;;;5118771;28;20196;-67
2023/01/13 10:26:33;;;;;;;0.40;0.20;;;7.80;99.90;;;;;;5104512;28;20238;-67
2023/01/13 10:29:00;;;;;;;0.30;0.30;;;7.90;99.90;;;;;;5126535;28;20197;-67
2023/01/13 10:31:27;;;;;;;0.30;0.20;;;8.00;99.90;;;;;;5125820;28;20217;-68
2023/01/13 10:34:02;;;;;;;0.40;0.30;;;8.10;99.90;;;;;;5126728;28;20615;-67
2023/01/13 10:36:31;;;;;;;0.30;0.20;;;8.20;99.90;;;;;;5124132;28;21237;-67
2023/01/13 10:39:08;;;;;;;0.40;0.23;;;8.30;99.90;;;;;;5123683;28;20734;-69
2023/01/13 10:41:36;;;;;;;0.30;0.20;;;8.30;99.90;;;;;;5112699;28;20662;-67
2023/01/13 10:44:04;;;;;;;0.30;0.20;;;8.40;99.90;;;;;;5115743;28;20620;-69
2023/01/13 10:46:33;;;;;;;0.30;0.20;;;8.90;99.90;;;;;;5113313;28;20647;-68
2023/01/13 10:49:02;;;;;;;0.30;0.20;;;7.60;99.90;;;;;;5121648;28;21068;-68
2023/01/13 10:51:42;;;;;;;0.30;0.20;;;8.30;99.90;;;;;;5107040;28;20707;-67
2023/01/13 10:54:19;;;;;;;0.30;0.20;;;8.20;99.90;;;;;;5124598;28;20619;-66
2023/01/13 10:56:46;;;;;;;0.40;0.30;;;8.00;99.90;;;;;;5126231;28;21013;-66
2023/01/13 10:59:22;;;;;;;0.30;0.20;;;7.50;99.90;;;;;;5124659;28;20625;-67
2023/01/13 11:02:01;;;;;;;0.30;0.20;;;7.60;99.90;;;;;;5126124;28;20642;-67
2023/01/13 11:04:31;;;;;;;0.40;0.40;;;7.10;99.90;;;;;;5120909;27;20742;-67
2023/01/13 11:07:00;;;;;;;1.30;0.85;;;7.50;99.90;;;;;;5127741;27;20308;-67
2023/01/13 11:09:28;;;;;;;0.40;0.20;;;7.40;99.90;;;;;;5119702;27;20284;-67
2023/01/13 11:11:57;;;;;;;0.30;0.30;;;7.30;99.90;;;;;;5118937;27;20409;-66
2023/01/13 11:14:39;;;;;;;1.10;0.95;;;7.30;99.90;;;;;;5117651;27;20732;-68
2023/01/13 11:17:16;;;;;;;0.30;0.20;;;7.30;99.90;;;;;;5119245;27;20220;-67
2023/01/13 11:19:47;;;;;;;0.30;0.20;;;7.20;99.90;;;;;;5119965;27;20254;-67
2023/01/13 11:22:21;;;;;;;0.30;0.20;;;7.10;99.90;;;;;;5129464;27;20225;-68
2023/01/13 11:24:53;;;;;;;0.30;0.20;;;7.30;99.90;;;;;;5129631;27;20635;-67
2023/01/13 11:27:25;;;;;;;0.55;0.25;;;7.20;99.90;;;;;;5125011;27;20343;-66
2023/01/13 11:30:01;;;;;;;0.40;0.40;;;7.10;99.90;;;;;;5108981;28;20201;-68
2023/01/13 11:32:33;;;;;;;0.50;0.30;;;7.10;99.90;;;;;;5109804;27;20214;-68
2023/01/13 11:35:04;;;;;;;0.30;0.20;;;7.10;99.90;;;;;;5113396;27;20202;-66
2023/01/13 11:37:36;;;;;;;0.30;0.20;;;7.10;99.90;;;;;;5116724;27;20224;-67
2023/01/13 11:40:07;;;;;;;0.30;0.20;;;7.00;99.90;;;;;;5116453;27;20204;-66
2023/01/13 11:42:41;;;;;;;0.30;0.20;;;6.90;99.90;;;;;;5116770;27;20216;-67
2023/01/13 11:45:17;;;;;;;0.50;0.30;;;6.90;99.90;;;;;;5113537;27;20292;-68
2023/01/13 11:47:47;;;;;;;1.63;0.30;;;6.90;99.90;;;;;;5119723;27;20745;-68
2023/01/13 11:50:18;;;;;;;0.60;0.32;;;6.80;99.90;;;;;;5128296;27;20197;-67
2023/01/13 11:53:06;;;;;;;0.30;0.20;;;6.80;99.90;;;;;;5128380;27;20193;-68
2023/01/13 11:55:47;;;;;;;0.30;0.20;;;6.80;99.90;;;;;;5118517;27;20245;-68
2023/01/13 11:58:59;;;;;;;0.40;0.28;;;6.80;99.90;;;;;;5111840;27;20235;-67
2023/01/13 12:01:48;;;;;;;10.18;1.42;;;6.90;99.90;;;;;;5061497;27;20464;-68
2023/01/13 12:04:25;;;;;;;0.30;0.20;;;6.80;99.90;;;;;;5114710;27;20304;-68
2023/01/13 12:07:00;;;;;;;0.40;0.40;;;6.70;99.90;;;;;;5118574;27;20335;-67
2023/01/13 12:09:36;;;;;;;0.30;0.30;;;6.70;99.90;;;;;;5117658;27;20561;-69
2023/01/13 12:12:26;;;;;;;0.30;0.20;;;6.50;99.90;;;;;;5118950;27;20709;-67
2023/01/13 12:15:29;;;;;;;1.10;0.43;;;6.70;99.90;;;;;;5116184;27;20209;-67
2023/01/13 12:18:14;;;;;;;0.30;0.20;;;6.70;99.90;;;;;;5111309;27;20889;-67
2023/01/13 12:20:51;;;;;;;0.40;0.35;;;6.70;99.90;;;;;;5124685;27;20296;-68
2023/01/13 12:23:30;;;;;;;0.30;0.20;;;6.90;99.90;;;;;;5127563;27;20197;-68
2023/01/13 12:26:01;;;;;;;0.55;0.55;;;6.90;99.90;;;;;;5129112;27;20229;-68
2023/01/13 12:28:37;;;;;;;0.40;0.20;;;7.20;99.90;;;;;;5123960;27;20500;-68
2023/01/13 12:31:06;;;;;;;0.30;0.25;;;6.40;99.90;;;;;;5127729;27;20209;-70
2023/01/13 12:33:49;;;;;;;0.30;0.30;;;7.10;99.90;;;;;;5129354;27;20196;-67
2023/01/13 12:36:24;;;;;;;0.30;0.20;;;7.20;99.90;;;;;;5128399;27;20224;-67
2023/01/13 12:38:57;;;;;;;1.73;0.40;;;7.30;99.90;;;;;;5119350;27;20665;-67
2023/01/13 12:44:15;;;;;;;0.30;0.20;;;7.30;99.90;;;;;;5107284;28;20226;-68
2023/01/13 12:44:25;;;;;;;0.30;0.20;;;7.40;99.90;;;;;;5107936;28;20201;-68
2023/01/13 12:46:54;;;;;;;0.77;0.30;;;7.60;99.90;;;;;;5122623;27;20296;-68
2023/01/13 12:49:30;;;;;;;0.50;0.30;;;7.60;99.90;;;;;;5127592;27;20296;-68
2023/01/13 12:52:11;;;;;;;6.03;0.63;;;7.70;99.90;;;;;;5128010;27;21470;-68
2023/01/13 12:55:08;;;;;;;0.30;0.22;;;7.60;99.90;;;;;;5128425;27;20207;-68
2023/01/13 12:57:38;;;;;;;0.43;0.32;;;7.60;99.90;;;;;;5116880;27;20217;-68
2023/01/13 13:00:14;;;;;;;0.60;0.50;;;7.70;99.90;;;;;;5115913;27;20197;-71
2023/01/13 13:02:42;;;;;;;0.75;0.25;;;7.60;99.90;;;;;;5115124;27;20272;-68
2023/01/13 13:05:39;;;;;;;0.40;0.40;;;7.70;99.90;;;;;;5117318;27;20601;-68
2023/01/13 13:08:14;;;;;;;0.50;0.40;;;7.70;99.90;;;;;;5125817;27;20203;-68
2023/01/13 13:10:56;;;;;;;0.30;0.20;;;7.40;99.90;;;;;;5120205;27;20733;-68
2023/01/13 13:13:41;;;;;;;0.65;0.65;;;7.70;98.80;;;;;;5117857;27;20204;-70
2023/01/13 13:16:59;;;;;;;0.30;0.28;;;7.80;98.20;;;;;;5111871;27;20265;-67
2023/01/13 13:19:47;;;;;;;0.40;0.30;;;7.80;97.80;;;;;;5123402;27;20248;-68
2023/01/13 13:22:45;;;;;;;0.30;0.10;;;7.70;98.40;;;;;;5113673;27;20304;-68
2023/01/13 13:25:24;;;;;;;1.08;0.65;;;7.80;99.90;;;;;;5111894;27;20580;-68
2023/01/13 13:28:03;;;;;;;0.60;0.43;;;7.80;98.70;;;;;;5110776;27;20201;-67
2023/01/13 13:30:35;;;;;;;0.30;0.20;;;7.80;98.10;;;;;;5127391;27;20231;-69
2023/01/13 13:33:31;;;;;;;0.50;0.30;;;7.80;97.90;;;;;;5126696;27;20197;-68
2023/01/13 13:36:09;;;;;;;0.40;0.20;;;7.90;97.90;;;;;;5127713;27;20225;-67
2023/01/13 13:47:18;;;;;;;0.30;0.20;;;8.00;99.90;;;;;;5107419;28;20680;-67
2023/01/13 13:49:49;;;;;;;0.40;0.20;;;8.00;97.50;;;;;;5107073;28;20670;-67
2023/01/13 13:52:21;;;;;;;0.68;0.68;;;8.10;99.90;;;;;;5106117;28;21250;-67
2023/01/13 13:54:51;;;;;;;0.30;0.20;;;8.00;97.80;;;;;;5107967;28;20202;-68
2023/01/13 13:57:19;;;;;;;0.40;0.20;;;8.50;97.80;;;;;;5117255;28;20675;-69
2023/01/13 13:59:56;;;;;;;0.53;0.50;;;8.10;97.80;;;;;;5116026;28;20667;-69
2023/01/13 14:02:28;;;;;;;1.77;1.63;;;8.10;97.70;;;;;;5115509;28;20989;-66
2023/01/13 14:05:08;;;;;;;4.53;0.30;;;8.00;97.60;;;;;;5127119;28;20627;-67
2023/01/13 14:07:43;;;;;;;0.30;0.30;;;8.00;97.80;;;;;;5119434;28;20696;-66
2023/01/13 14:10:18;;;;;;;0.30;0.20;;;8.00;98.40;;;;;;5125864;28;20614;-67
2023/01/13 14:12:45;;;;;;;0.40;0.40;;;7.60;99.90;;;;;;5125496;28;20726;-67